Terminal Aerodrome Forecast
Issued by NWS

Home | Current Version | Previous Version | Text Only | Print | Product List | Glossary On
Versions: 1 2 3 4 5 6 7 8 9 10 11 12 13 14
000
FTUS44 KEPZ 252350
TAFDMN
TAF
KDMN 252350Z 2600/2624 26015G20KT P6SM FEW250
     FM260100 28010KT P6SM BKN250
     FM261900 28025G35KT 3SM BLDU SCT250=

USA.gov is the U.S. government's official web portal to all federal, state and local government web resources and services.